createdAt,value
2022-08-01T00:01:54.281Z,98760.38
2022-08-01T00:04:39.343Z,98760.20
2022-08-01T00:07:21.429Z,98762.55
2022-08-01T00:10:16.041Z,98763.67
2022-08-01T00:13:08.196Z,98768.15
2022-08-01T00:16:02.751Z,98764.91
2022-08-01T00:18:55.125Z,98764.42
2022-08-01T00:21:52.109Z,98764.98
2022-08-01T00:24:24.847Z,98764.51
2022-08-01T00:27:16.916Z,98768.55
2022-08-01T00:30:14.705Z,98772.75
2022-08-01T00:33:07.249Z,98773.77
2022-08-01T00:36:01.579Z,98773.41
2022-08-01T00:38:53.642Z,98769.01
2022-08-01T00:41:45.652Z,98766.86
2022-08-01T00:44:37.860Z,98765.16
2022-08-01T00:47:29.975Z,98761.39
2022-08-01T00:50:22.095Z,98766.45
2022-08-01T00:53:18.483Z,98768.66
2022-08-01T00:56:11.624Z,98771.25
2022-08-01T00:59:05.530Z,98766.74
2022-08-01T01:01:57.683Z,98765.18
2022-08-01T01:04:49.719Z,98765.57
2022-08-01T01:07:50.569Z,98764.67
2022-08-01T01:10:40.718Z,98763.14
2022-08-01T01:13:50.227Z,98759.73
2022-08-01T01:16:45.642Z,98758.34
2022-08-01T01:19:41.418Z,98756.30
2022-08-01T01:22:48.343Z,98753.95
2022-08-01T01:26:03.090Z,98756.12
2022-08-01T01:29:10.917Z,98758.64
2022-08-01T01:32:10.036Z,98756.07
2022-08-01T01:35:05.027Z,98755.30
2022-08-01T01:37:48.854Z,98756.59
2022-08-01T01:40:42.760Z,98756.42
2022-08-01T01:43:37.332Z,98762.44
2022-08-01T01:46:31.546Z,98761.36
2022-08-01T01:49:26.541Z,98762.52
2022-08-01T01:52:21.266Z,98766.95
2022-08-01T01:55:14.620Z,98767.10
2022-08-01T01:58:08.446Z,98766.97
2022-08-01T02:01:03.654Z,98764.41
2022-08-01T02:03:58.155Z,98765.20
2022-08-01T02:06:41.721Z,98766.30
2022-08-01T02:09:36.282Z,98772.67
2022-08-01T02:12:29.484Z,98775.95
2022-08-01T02:15:25.028Z,98777.84
2022-08-01T02:18:12.670Z,98779.45
2022-08-01T02:21:10.445Z,98774.70
2022-08-01T02:23:53.558Z,98776.13
2022-08-01T02:26:49.490Z,98781.27
2022-08-01T02:29:45.900Z,98780.19
2022-08-01T02:32:43.224Z,98779.96
2022-08-01T02:36:28.933Z,98777.55
2022-08-01T02:38:53.212Z,98775.91
2022-08-01T02:41:49.801Z,98779.69
2022-08-01T02:44:33.566Z,98783.83
2022-08-01T02:47:16.715Z,98781.06
2022-08-01T02:50:02.856Z,98781.92
2022-08-01T02:52:57.428Z,98786.90
2022-08-01T02:55:30.970Z,98788.79
2022-08-01T02:58:29.327Z,98787.77
2022-08-01T03:01:24.831Z,98791.85
2022-08-01T03:04:20.823Z,98801.21
2022-08-01T03:07:14.988Z,98801.06
2022-08-01T03:10:08.597Z,98801.97
2022-08-01T03:13:04.669Z,98804.14
2022-08-01T03:15:59.113Z,98802.60
2022-08-01T03:18:53.949Z,98803.09
2022-08-01T03:21:48.589Z,98804.63
2022-08-01T03:24:43.466Z,98803.77
2022-08-01T03:27:38.419Z,98804.44
2022-08-01T03:30:24.499Z,98804.86
2022-08-01T03:33:16.718Z,98809.20
2022-08-01T03:36:14.807Z,98809.50
2022-08-01T03:39:10.107Z,98806.67
2022-08-01T03:42:08.227Z,98809.21
2022-08-01T03:45:04.950Z,98809.66
2022-08-01T03:48:01.522Z,98809.05
2022-08-01T03:50:55.354Z,98807.48
2022-08-01T03:53:50.251Z,98807.32
2022-08-01T03:56:46.885Z,98810.63
2022-08-01T03:59:40.237Z,98809.59
2022-08-01T04:02:32.751Z,98817.31
2022-08-01T04:05:25.097Z,98817.36
2022-08-01T04:08:10.234Z,98821.97
2022-08-01T04:11:02.404Z,98821.27
2022-08-01T04:13:55.275Z,98827.48
2022-08-01T04:16:47.863Z,98828.92
2022-08-01T04:19:41.317Z,98831.64
2022-08-01T04:22:37.232Z,98830.45
2022-08-01T04:25:34.358Z,98834.51
2022-08-01T04:28:27.050Z,98832.48
2022-08-01T04:31:21.256Z,98830.96
2022-08-01T04:34:01.641Z,98833.55
2022-08-01T04:36:56.656Z,98835.33
2022-08-01T04:39:51.360Z,98837.77
2022-08-01T04:42:43.625Z,98838.58
2022-08-01T04:45:37.558Z,98835.98
2022-08-01T04:48:11.871Z,98834.37
2022-08-01T04:51:05.622Z,98835.36
2022-08-01T04:53:58.879Z,98835.00
2022-08-01T04:56:51.615Z,98836.23
2022-08-01T04:59:47.363Z,98842.46
2022-08-01T05:02:39.592Z,98843.36
2022-08-01T05:05:32.994Z,98839.34
2022-08-01T05:08:25.714Z,98840.59
2022-08-01T05:11:16.673Z,98842.40
2022-08-01T05:14:08.213Z,98840.27
2022-08-01T05:16:40.162Z,98841.56
2022-08-01T05:19:32.922Z,98841.23
2022-08-01T05:22:09.249Z,98843.78
2022-08-01T05:25:01.530Z,98845.26
2022-08-01T05:27:53.981Z,98848.87
2022-08-01T05:30:46.144Z,98853.72
2022-08-01T05:33:38.204Z,98854.35
2022-08-01T05:36:10.255Z,98854.75
2022-08-01T05:39:02.380Z,98852.63
2022-08-01T05:41:54.381Z,98849.69
2022-08-01T05:44:48.603Z,98851.97
2022-08-01T05:47:42.923Z,98854.74
2022-08-01T05:50:36.140Z,98858.64
2022-08-01T05:53:28.226Z,98862.77
2022-08-01T05:56:20.452Z,98866.94
2022-08-01T05:59:12.770Z,98865.15
2022-08-01T06:02:05.203Z,98866.07
2022-08-01T06:04:57.479Z,98869.77
2022-08-01T06:07:49.613Z,98870.27
2022-08-01T06:10:45.522Z,98873.05
2022-08-01T06:13:44.910Z,98873.19
2022-08-01T06:16:40.737Z,98875.37
2022-08-01T06:19:25.495Z,98874.77
2022-08-01T06:22:17.791Z,98882.86
2022-08-01T06:25:11.902Z,98879.90
2022-08-01T06:27:54.868Z,98883.73
2022-08-01T06:30:46.943Z,98884.00
2022-08-01T06:33:38.989Z,98886.10
2022-08-01T06:36:30.957Z,98882.73
2022-08-01T06:39:22.970Z,98884.86
2022-08-01T06:42:15.962Z,98889.13
2022-08-01T06:45:10.350Z,98891.90
2022-08-01T06:48:02.363Z,98897.10
2022-08-01T06:51:09.099Z,98896.73
2022-08-01T06:54:01.224Z,98901.77
2022-08-01T06:56:53.189Z,98904.92
2022-08-01T06:59:51.941Z,98905.30
2022-08-01T07:02:47.594Z,98910.55
2022-08-01T07:05:39.854Z,98911.21
2022-08-01T07:08:32.046Z,98915.94
2022-08-01T07:11:25.741Z,98912.85
2022-08-01T07:14:20.800Z,98917.35
2022-08-01T07:17:12.874Z,98917.56
2022-08-01T07:20:05.833Z,98919.60
2022-08-01T07:23:02.351Z,98921.91
2022-08-01T07:25:56.951Z,98925.56
2022-08-01T07:28:51.359Z,98928.81
2022-08-01T07:31:35.620Z,98930.86
2022-08-01T07:34:27.447Z,98931.06
2022-08-01T07:37:47.870Z,98933.88
2022-08-01T07:40:32.705Z,98930.48
2022-08-01T07:43:24.760Z,98929.58
2022-08-01T07:46:18.230Z,98932.40
2022-08-01T07:49:10.436Z,98931.93
2022-08-01T07:52:04.283Z,98936.32
2022-08-01T07:54:57.316Z,98933.42
2022-08-01T07:57:49.315Z,98937.12
2022-08-01T08:00:41.335Z,98936.36
2022-08-01T08:03:33.339Z,98935.66
2022-08-01T08:06:25.450Z,98934.61
2022-08-01T08:09:17.880Z,98935.15
2022-08-01T08:12:02.119Z,98942.66
2022-08-01T08:14:54.527Z,98946.02
2022-08-01T08:17:46.605Z,98946.89
2022-08-01T08:20:39.535Z,98954.05
2022-08-01T08:23:48.770Z,98956.52
2022-08-01T08:26:40.879Z,98957.77
2022-08-01T08:29:26.416Z,98958.36
2022-08-01T08:32:18.420Z,98955.48
2022-08-01T08:35:12.183Z,98956.54
2022-08-01T08:37:49.609Z,98959.94
2022-08-01T08:40:31.347Z,98958.99
2022-08-01T08:43:25.580Z,98958.70
2022-08-01T08:46:10.233Z,98957.69
2022-08-01T08:49:04.533Z,98958.29
2022-08-01T08:52:02.190Z,98958.73
2022-08-01T08:54:55.314Z,98959.63
2022-08-01T08:57:48.887Z,98962.64
2022-08-01T09:00:42.240Z,98968.13
2022-08-01T09:03:39.657Z,98971.35
2022-08-01T09:06:21.655Z,98968.02
2022-08-01T09:08:53.982Z,98970.11
2022-08-01T09:11:46.138Z,98971.66
2022-08-01T09:14:54.494Z,98974.20
2022-08-01T09:17:26.961Z,98969.29
2022-08-01T09:20:27.653Z,98979.51
2022-08-01T09:23:36.535Z,98981.90
2022-08-01T09:26:35.700Z,98982.02
2022-08-01T09:29:10.434Z,98977.71
2022-08-01T09:32:07.222Z,98974.88
2022-08-01T09:34:49.663Z,98973.71
2022-08-01T09:37:45.191Z,98979.89
2022-08-01T09:40:28.096Z,98977.23
2022-08-01T09:43:21.142Z,98976.29
2022-08-01T09:46:14.834Z,98977.85
2022-08-01T09:49:10.628Z,98972.65
2022-08-01T09:52:14.536Z,98971.44
2022-08-01T09:54:53.843Z,98963.78
2022-08-01T09:58:02.069Z,98965.88
2022-08-01T10:00:45.163Z,98957.30
2022-08-01T10:03:30.687Z,98954.67
2022-08-01T10:06:24.688Z,98957.95
2022-08-01T10:09:28.345Z,98959.55
2022-08-01T10:12:26.855Z,98955.48
2022-08-01T10:15:04.477Z,98950.81
2022-08-01T10:17:50.401Z,98960.38
2022-08-01T10:20:36.279Z,98959.66
2022-08-01T10:23:21.168Z,98955.52
2022-08-01T10:26:14.350Z,98952.88
2022-08-01T10:29:45.340Z,98952.05
2022-08-01T10:32:02.919Z,98951.04
2022-08-01T10:34:50.318Z,98956.05
2022-08-01T10:37:52.173Z,98953.05
2022-08-01T10:40:45.329Z,98954.75
2022-08-01T10:43:37.399Z,98956.62
2022-08-01T10:46:32.463Z,98957.68
2022-08-01T10:49:08.589Z,98959.23
2022-08-01T10:51:52.423Z,98957.33
2022-08-01T10:54:29.252Z,98963.70
2022-08-01T10:57:27.566Z,98965.41
2022-08-01T11:00:05.518Z,98966.48
2022-08-01T11:03:02.640Z,98968.00
2022-08-01T11:05:36.725Z,98972.48
2022-08-01T11:08:12.501Z,98973.95
2022-08-01T11:10:45.356Z,98968.89
2022-08-01T11:13:39.729Z,98965.23
2022-08-01T11:16:29.265Z,98966.00
2022-08-01T11:19:01.199Z,98963.86
2022-08-01T11:22:03.593Z,98962.12
2022-08-01T11:25:02.354Z,98960.38
2022-08-01T11:27:35.010Z,98955.23
2022-08-01T11:30:28.314Z,98953.11
2022-08-01T11:33:11.549Z,98955.20
2022-08-01T11:36:55.484Z,98949.81
2022-08-01T11:39:21.289Z,98951.05
2022-08-01T11:41:53.754Z,98949.45
2022-08-01T11:44:31.216Z,98940.98
2022-08-01T11:47:09.838Z,98943.95
2022-08-01T11:49:51.758Z,98940.23
2022-08-01T11:52:29.887Z,98942.77
2022-08-01T11:55:11.651Z,98937.31
2022-08-01T11:57:43.675Z,98934.67
2022-08-01T12:00:18.898Z,98935.06
2022-08-01T12:03:01.375Z,98934.66
2022-08-01T12:05:43.037Z,98936.25
2022-08-01T12:08:15.530Z,98938.34
2022-08-01T12:10:53.155Z,98933.36
2022-08-01T12:13:44.475Z,98942.59
2022-08-01T12:16:16.314Z,98936.68
2022-08-01T12:18:48.801Z,98936.14
2022-08-01T12:21:20.637Z,98937.89
2022-08-01T12:24:04.693Z,98937.94
2022-08-01T12:26:46.037Z,98936.63
2022-08-01T12:29:34.513Z,98932.02
2022-08-01T12:32:28.985Z,98929.89
2022-08-01T12:35:10.078Z,98924.31
2022-08-01T12:37:44.761Z,98920.83
2022-08-01T12:40:19.678Z,98920.45
2022-08-01T12:42:53.073Z,98921.31
2022-08-01T12:45:28.890Z,98923.13
2022-08-01T12:48:01.904Z,98918.20
2022-08-01T12:50:34.635Z,98922.74
2022-08-01T12:53:07.288Z,98920.02
2022-08-01T12:55:59.542Z,98915.19
2022-08-01T12:58:36.401Z,98922.84
2022-08-01T13:01:10.371Z,98921.09
2022-08-01T13:04:05.225Z,98920.60
2022-08-01T13:06:50.767Z,98918.96
2022-08-01T13:09:33.338Z,98915.11
2022-08-01T13:12:25.365Z,98914.89
2022-08-01T13:15:32.036Z,98908.73
2022-08-01T13:18:23.667Z,98914.00
2022-08-01T13:21:18.808Z,98907.80
2022-08-01T13:24:12.470Z,98903.70
2022-08-01T13:26:49.207Z,98902.51
2022-08-01T13:29:24.116Z,98900.91
2022-08-01T13:32:27.681Z,98903.52
2022-08-01T13:35:24.008Z,98908.21
2022-08-01T13:37:57.393Z,98910.96
2022-08-01T13:40:29.796Z,98910.88
2022-08-01T13:43:12.810Z,98911.10
2022-08-01T13:45:55.754Z,98907.13
2022-08-01T13:48:50.353Z,98909.02
2022-08-01T13:51:25.633Z,98906.18
2022-08-01T13:54:17.632Z,98904.19
2022-08-01T13:56:52.614Z,98908.33
2022-08-01T13:59:44.673Z,98914.58
2022-08-01T14:02:36.811Z,98913.52
2022-08-01T14:05:28.959Z,98909.85
2022-08-01T14:08:05.024Z,98910.92
2022-08-01T14:10:59.558Z,98917.04
2022-08-01T14:13:51.993Z,98921.73
2022-08-01T14:16:45.806Z,98922.19
2022-08-01T14:19:23.045Z,98916.08
2022-08-01T14:22:31.093Z,98915.91
2022-08-01T14:26:00.730Z,98920.24
2022-08-01T14:28:37.701Z,98914.25
2022-08-01T14:31:19.594Z,98919.88
2022-08-01T14:34:11.586Z,98921.88
2022-08-01T14:36:56.410Z,98917.30
2022-08-01T14:39:54.350Z,98916.80
2022-08-01T14:42:46.653Z,98917.50
2022-08-01T14:45:38.670Z,98924.09
2022-08-01T14:48:23.194Z,98924.66
2022-08-01T14:51:15.270Z,98926.48
2022-08-01T14:54:08.240Z,98927.36
2022-08-01T14:57:01.421Z,98927.00
2022-08-01T14:59:53.973Z,98926.70
2022-08-01T15:02:46.625Z,98928.09
2022-08-01T15:05:38.607Z,98927.88
2022-08-01T15:08:31.131Z,98924.92
2022-08-01T15:11:05.347Z,98924.73
2022-08-01T15:14:12.291Z,98928.05
2022-08-01T15:17:04.384Z,98927.50
2022-08-01T15:19:59.017Z,98931.85
2022-08-01T15:22:41.002Z,98935.41
2022-08-01T15:25:40.934Z,98932.01
2022-08-01T15:28:26.991Z,98936.36
2022-08-01T15:31:18.990Z,98939.92
2022-08-01T15:34:11.022Z,98933.48
2022-08-01T15:37:04.663Z,98934.48
2022-08-01T15:39:56.898Z,98938.15
2022-08-01T15:42:49.194Z,98941.97
2022-08-01T15:45:47.298Z,98939.65
2022-08-01T15:48:20.426Z,98942.48
2022-08-01T15:50:52.553Z,98939.23
2022-08-01T15:53:45.250Z,98935.23
2022-08-01T15:56:38.017Z,98939.62
2022-08-01T15:59:30.133Z,98942.39
2022-08-01T16:02:02.079Z,98942.89
2022-08-01T16:04:54.179Z,98939.13
2022-08-01T16:07:25.930Z,98941.02
2022-08-01T16:10:18.611Z,98937.59
2022-08-01T16:13:10.770Z,98939.17
2022-08-01T16:16:04.957Z,98941.56
2022-08-01T16:18:57.022Z,98936.87
2022-08-01T16:21:49.207Z,98941.09
2022-08-01T16:24:41.210Z,98938.17
2022-08-01T16:27:33.213Z,98938.81
2022-08-01T16:30:25.653Z,98940.05
2022-08-01T16:33:07.250Z,98941.16
2022-08-01T16:35:49.387Z,98942.59
2022-08-01T16:38:23.972Z,98943.84
2022-08-01T16:40:58.047Z,98943.09
2022-08-01T16:43:53.821Z,98944.80
2022-08-01T16:46:46.551Z,98947.14
2022-08-01T16:49:22.491Z,98944.89
2022-08-01T16:52:14.565Z,98943.75
2022-08-01T16:54:51.081Z,98944.98
2022-08-01T16:57:37.153Z,98942.87
2022-08-01T17:00:21.170Z,98945.52
2022-08-01T17:03:17.366Z,98944.41
2022-08-01T17:06:26.669Z,98943.09
2022-08-01T17:09:11.581Z,98942.20
2022-08-01T17:12:03.404Z,98947.04
2022-08-01T17:14:55.434Z,98947.11
2022-08-01T17:17:30.366Z,98948.30
2022-08-01T17:20:13.235Z,98952.88
2022-08-01T17:22:45.197Z,98958.24
2022-08-01T17:25:37.233Z,98957.55
2022-08-01T17:28:29.343Z,98961.34
2022-08-01T17:31:01.411Z,98961.80
2022-08-01T17:33:55.158Z,98961.52
2022-08-01T17:36:47.276Z,98960.84
2022-08-01T17:39:36.332Z,98960.25
2022-08-01T17:42:14.699Z,98961.22
2022-08-01T17:45:11.737Z,98963.63
2022-08-01T17:48:19.996Z,98965.63
2022-08-01T17:50:54.119Z,98964.60
2022-08-01T17:53:57.160Z,98960.89
2022-08-01T17:56:49.869Z,98965.39
2022-08-01T17:59:43.780Z,98968.77
2022-08-01T18:02:15.704Z,98970.14
2022-08-01T18:04:52.355Z,98977.44
2022-08-01T18:08:01.701Z,98976.35
2022-08-01T18:10:47.409Z,98976.75
2022-08-01T18:13:40.614Z,98980.96
2022-08-01T18:16:26.503Z,98983.75
2022-08-01T18:19:11.100Z,98985.48
2022-08-01T18:22:03.464Z,98987.41
2022-08-01T18:24:45.304Z,98989.41
2022-08-01T18:28:29.587Z,98990.02
2022-08-01T18:30:49.886Z,98992.11
2022-08-01T18:33:41.973Z,98996.19
2022-08-01T18:36:34.470Z,98999.11
2022-08-01T18:39:27.187Z,99003.48
2022-08-01T18:42:12.103Z,99008.48
2022-08-01T18:45:04.403Z,99009.83
2022-08-01T18:47:56.741Z,99014.38
2022-08-01T18:50:48.761Z,99015.60
2022-08-01T18:53:42.043Z,99014.63
2022-08-01T18:56:34.290Z,99015.69
2022-08-01T18:59:26.880Z,99022.88
2022-08-01T19:02:19.141Z,99026.81
2022-08-01T19:05:11.921Z,99028.20
2022-08-01T19:08:06.051Z,99034.69
2022-08-01T19:11:00.095Z,99034.70
2022-08-01T19:13:52.489Z,99037.22
2022-08-01T19:16:44.551Z,99040.02
2022-08-01T19:22:57.226Z,99044.92
2022-08-01T19:25:54.990Z,99045.78
2022-08-01T19:28:47.304Z,99051.33
2022-08-01T19:31:45.650Z,99048.27
2022-08-01T19:34:49.541Z,99049.95
2022-08-01T19:37:45.845Z,99051.53
2022-08-01T19:40:39.345Z,99047.95
2022-08-01T19:43:39.637Z,99053.08
2022-08-01T19:46:34.100Z,99055.09
2022-08-01T19:49:26.817Z,99054.55
2022-08-01T19:52:26.077Z,99057.64
2022-08-01T19:55:19.465Z,99060.08
2022-08-01T19:58:28.702Z,99057.66
2022-08-01T20:01:20.658Z,99057.66
2022-08-01T20:03:53.738Z,99059.34
2022-08-01T20:06:48.139Z,99060.77
2022-08-01T20:09:42.933Z,99058.59
2022-08-01T20:12:36.497Z,99057.72
2022-08-01T20:15:29.452Z,99060.52
2022-08-01T20:18:22.331Z,99060.45
2022-08-01T20:21:16.144Z,99061.52
2022-08-01T20:23:53.392Z,99066.91
2022-08-01T20:27:00.826Z,99062.98
2022-08-01T20:29:54.388Z,99061.93
2022-08-01T20:32:48.097Z,99060.47
2022-08-01T20:35:51.911Z,99060.21
2022-08-01T20:38:45.529Z,99067.42
2022-08-01T20:41:38.730Z,99064.56
2022-08-01T20:44:35.631Z,99070.95
2022-08-01T20:47:28.747Z,99070.83
2022-08-01T20:50:52.967Z,99066.56
2022-08-01T20:53:53.928Z,99069.95
2022-08-01T20:56:58.157Z,99069.35
2022-08-01T20:59:55.534Z,99069.16
2022-08-01T21:03:01.360Z,99070.02
2022-08-01T21:06:03.428Z,99071.74
2022-08-01T21:09:00.973Z,99074.60
2022-08-01T21:11:58.448Z,99076.36
2022-08-01T21:14:54.985Z,99075.59
2022-08-01T21:17:55.528Z,99078.73
2022-08-01T21:20:55.453Z,99078.77
2022-08-01T21:23:54.138Z,99077.27
2022-08-01T21:26:47.279Z,99079.38
2022-08-01T21:29:40.762Z,99082.60
2022-08-01T21:32:16.189Z,99083.64
2022-08-01T21:35:16.352Z,99080.77
2022-08-01T21:38:10.942Z,99078.58
2022-08-01T21:41:08.160Z,99080.82
2022-08-01T21:44:02.983Z,99078.59
2022-08-01T21:46:55.599Z,99077.92
2022-08-01T21:49:47.873Z,99079.78
2022-08-01T21:52:46.749Z,99081.73
2022-08-01T21:55:51.566Z,99083.73
2022-08-01T21:58:51.616Z,99087.52
2022-08-01T22:01:52.564Z,99092.79
2022-08-01T22:04:50.048Z,99094.09
2022-08-01T22:07:47.550Z,99093.44
2022-08-01T22:10:40.245Z,99096.05
2022-08-01T22:13:22.596Z,99096.09
2022-08-01T22:16:16.228Z,99098.75
2022-08-01T22:19:10.528Z,99098.83
2022-08-01T22:22:42.465Z,99099.24
2022-08-01T22:25:36.931Z,99099.64
2022-08-01T22:28:29.802Z,99098.04
2022-08-01T22:31:23.658Z,99100.13
2022-08-01T22:34:18.919Z,99103.21
2022-08-01T22:37:14.982Z,99105.20
2022-08-01T22:40:10.919Z,99108.81
2022-08-01T22:43:12.275Z,99113.21
2022-08-01T22:46:16.522Z,99112.35
2022-08-01T22:49:20.951Z,99115.88
2022-08-01T22:52:19.029Z,99112.66
2022-08-01T22:55:16.477Z,99111.90
2022-08-01T22:58:09.478Z,99107.42
2022-08-01T23:01:04.284Z,99105.30
2022-08-01T23:03:58.554Z,99103.69
2022-08-01T23:06:55.741Z,99106.75
2022-08-01T23:09:54.737Z,99107.20
2022-08-01T23:12:48.680Z,99107.52
2022-08-01T23:15:41.829Z,99109.83
2022-08-01T23:18:46.182Z,99111.37
2022-08-01T23:21:29.830Z,99112.09
2022-08-01T23:24:22.708Z,99115.06
2022-08-01T23:27:22.370Z,99108.52
2022-08-01T23:30:16.156Z,99104.48
2022-08-01T23:33:09.011Z,99103.30
2022-08-01T23:36:01.115Z,99102.92
2022-08-01T23:38:54.684Z,99102.16
2022-08-01T23:41:57.441Z,99104.21
2022-08-01T23:44:51.649Z,99107.22
2022-08-01T23:47:43.988Z,99110.31
2022-08-01T23:50:36.444Z,99113.04
2022-08-01T23:53:31.077Z,99116.14
2022-08-01T23:56:25.180Z,99119.02
2022-08-01T23:59:18.881Z,99117.14
